Cleveland, South Carolina
Current Conditions -  °F | °C
As of 3:53 PM on Saturday 22 Nov 2014 (Local Time) from KGMU Reporting Station
Clear Clear  
Wind Chill: 55°   Ceiling: Unl
Heat Index: 55°   Visibility: 10mi
Dew Point: 19°   Wind: 5mph
Humidity: 24%   Direction: 100°E
Pressure: 30.36"   Gusts: NA
Location:  35.07°N, 82.53°W
Report Text: KGMU 222053Z 10004KT 10SM CLR 13/M07 A3036 RMK AO2 SLP285 T01281072 56023
Loading
Personal Weather Stations






























Interactive Weather Map New forecast layout! Learn more

10-Day Weather Forecast

Advertisements
Track Severe Weather on mobile